sensor_id;sensor_type;location;lat;lon;timestamp;temperature;humidity
12111;DHT22;6119;52.372;8.990;2023-05-07T00:02:45;13.60;99.90
12111;DHT22;6119;52.372;8.990;2023-05-07T00:05:32;13.40;99.90
12111;DHT22;6119;52.372;8.990;2023-05-07T00:08:18;13.50;99.90
12111;DHT22;6119;52.372;8.990;2023-05-07T00:11:05;13.40;99.90
12111;DHT22;6119;52.372;8.990;2023-05-07T00:13:52;13.50;99.90
12111;DHT22;6119;52.372;8.990;2023-05-07T00:16:38;13.50;99.90
12111;DHT22;6119;52.372;8.990;2023-05-07T00:19:26;13.50;99.90
12111;DHT22;6119;52.372;8.990;2023-05-07T00:22:13;13.60;99.90
12111;DHT22;6119;52.372;8.990;2023-05-07T00:24:59;13.50;99.90
12111;DHT22;6119;52.372;8.990;2023-05-07T00:27:46;13.40;99.90
12111;DHT22;6119;52.372;8.990;2023-05-07T00:30:33;13.40;99.90
12111;DHT22;6119;52.372;8.990;2023-05-07T00:33:19;13.40;99.90
12111;DHT22;6119;52.372;8.990;2023-05-07T00:36:07;13.40;99.90
12111;DHT22;6119;52.372;8.990;2023-05-07T00:38:54;13.40;99.90
12111;DHT22;6119;52.372;8.990;2023-05-07T00:41:41;13.40;99.90
12111;DHT22;6119;52.372;8.990;2023-05-07T00:44:27;13.20;99.90
12111;DHT22;6119;52.372;8.990;2023-05-07T00:47:15;13.20;99.90
12111;DHT22;6119;52.372;8.990;2023-05-07T00:50:01;13.10;99.90
12111;DHT22;6119;52.372;8.990;2023-05-07T00:52:50;13.10;99.90
12111;DHT22;6119;52.372;8.990;2023-05-07T00:55:38;13.20;99.90
12111;DHT22;6119;52.372;8.990;2023-05-07T00:58:25;13.20;99.90
12111;DHT22;6119;52.372;8.990;2023-05-07T01:01:11;13.20;99.90
12111;DHT22;6119;52.372;8.990;2023-05-07T01:03:58;13.10;99.90
12111;DHT22;6119;52.372;8.990;2023-05-07T01:06:45;13.10;99.90
12111;DHT22;6119;52.372;8.990;2023-05-07T01:09:34;13.10;99.90
12111;DHT22;6119;52.372;8.990;2023-05-07T01:12:22;13.00;99.90
12111;DHT22;6119;52.372;8.990;2023-05-07T01:15:09;13.10;99.90
12111;DHT22;6119;52.372;8.990;2023-05-07T01:17:56;13.00;99.90
12111;DHT22;6119;52.372;8.990;2023-05-07T01:20:43;12.90;99.90
12111;DHT22;6119;52.372;8.990;2023-05-07T01:23:30;13.00;99.90
12111;DHT22;6119;52.372;8.990;2023-05-07T01:26:17;11.90;99.90
12111;DHT22;6119;52.372;8.990;2023-05-07T01:29:04;12.90;99.90
12111;DHT22;6119;52.372;8.990;2023-05-07T01:31:51;12.90;99.90
12111;DHT22;6119;52.372;8.990;2023-05-07T01:34:39;12.70;99.90
12111;DHT22;6119;52.372;8.990;2023-05-07T01:37:26;12.80;99.90
12111;DHT22;6119;52.372;8.990;2023-05-07T01:40:14;12.80;99.90
12111;DHT22;6119;52.372;8.990;2023-05-07T01:43:02;12.70;99.90
12111;DHT22;6119;52.372;8.990;2023-05-07T01:45:49;12.70;99.90
12111;DHT22;6119;52.372;8.990;2023-05-07T01:48:36;12.60;99.90
12111;DHT22;6119;52.372;8.990;2023-05-07T01:51:23;12.80;99.90
12111;DHT22;6119;52.372;8.990;2023-05-07T01:54:09;12.80;99.90
12111;DHT22;6119;52.372;8.990;2023-05-07T01:56:57;12.80;99.90
12111;DHT22;6119;52.372;8.990;2023-05-07T01:59:44;12.80;99.90
12111;DHT22;6119;52.372;8.990;2023-05-07T02:02:30;12.70;99.90
12111;DHT22;6119;52.372;8.990;2023-05-07T02:05:17;12.70;99.90
12111;DHT22;6119;52.372;8.990;2023-05-07T02:08:04;12.70;99.90
12111;DHT22;6119;52.372;8.990;2023-05-07T02:10:50;12.70;99.90
12111;DHT22;6119;52.372;8.990;2023-05-07T02:13:40;12.70;99.90
12111;DHT22;6119;52.372;8.990;2023-05-07T02:16:27;12.70;99.90
12111;DHT22;6119;52.372;8.990;2023-05-07T02:19:14;12.70;99.90
12111;DHT22;6119;52.372;8.990;2023-05-07T02:22:01;12.70;99.90
12111;DHT22;6119;52.372;8.990;2023-05-07T02:24:47;12.60;99.90
12111;DHT22;6119;52.372;8.990;2023-05-07T02:27:34;12.60;99.90
12111;DHT22;6119;52.372;8.990;2023-05-07T02:30:22;12.50;99.90
12111;DHT22;6119;52.372;8.990;2023-05-07T02:33:09;12.50;99.90
12111;DHT22;6119;52.372;8.990;2023-05-07T02:36:05;12.60;99.90
12111;DHT22;6119;52.372;8.990;2023-05-07T02:38:52;12.40;99.90
12111;DHT22;6119;52.372;8.990;2023-05-07T02:41:39;12.60;99.90
12111;DHT22;6119;52.372;8.990;2023-05-07T02:44:26;12.60;99.90
12111;DHT22;6119;52.372;8.990;2023-05-07T02:47:15;12.60;99.90
12111;DHT22;6119;52.372;8.990;2023-05-07T02:50:02;12.60;99.90
12111;DHT22;6119;52.372;8.990;2023-05-07T02:52:48;12.60;99.90
12111;DHT22;6119;52.372;8.990;2023-05-07T02:55:35;12.60;99.90
12111;DHT22;6119;52.372;8.990;2023-05-07T02:58:22;12.60;99.90
12111;DHT22;6119;52.372;8.990;2023-05-07T03:01:08;12.50;99.90
12111;DHT22;6119;52.372;8.990;2023-05-07T03:03:56;12.50;99.90
12111;DHT22;6119;52.372;8.990;2023-05-07T03:06:43;12.40;99.90
12111;DHT22;6119;52.372;8.990;2023-05-07T03:09:30;12.40;99.90
12111;DHT22;6119;52.372;8.990;2023-05-07T03:12:16;12.50;99.90
12111;DHT22;6119;52.372;8.990;2023-05-07T03:15:03;12.40;99.90
12111;DHT22;6119;52.372;8.990;2023-05-07T03:17:50;12.40;99.90
12111;DHT22;6119;52.372;8.990;2023-05-07T03:20:38;12.40;99.90
12111;DHT22;6119;52.372;8.990;2023-05-07T03:23:25;12.40;99.90
12111;DHT22;6119;52.372;8.990;2023-05-07T03:26:11;12.40;99.90
12111;DHT22;6119;52.372;8.990;2023-05-07T03:28:57;12.30;99.90
12111;DHT22;6119;52.372;8.990;2023-05-07T03:31:44;12.30;99.90
12111;DHT22;6119;52.372;8.990;2023-05-07T03:34:31;12.30;99.90
12111;DHT22;6119;52.372;8.990;2023-05-07T03:37:19;12.30;99.90
12111;DHT22;6119;52.372;8.990;2023-05-07T03:40:07;12.30;99.90
12111;DHT22;6119;52.372;8.990;2023-05-07T03:42:56;12.20;99.90
12111;DHT22;6119;52.372;8.990;2023-05-07T03:45:42;12.20;99.90
12111;DHT22;6119;52.372;8.990;2023-05-07T03:48:28;12.30;99.90
12111;DHT22;6119;52.372;8.990;2023-05-07T03:51:15;12.20;99.90
12111;DHT22;6119;52.372;8.990;2023-05-07T03:54:03;12.20;99.90
12111;DHT22;6119;52.372;8.990;2023-05-07T03:56:49;12.20;99.90
12111;DHT22;6119;52.372;8.990;2023-05-07T03:59:36;12.20;99.90
12111;DHT22;6119;52.372;8.990;2023-05-07T04:02:22;12.30;99.90
12111;DHT22;6119;52.372;8.990;2023-05-07T04:05:09;12.20;99.90
12111;DHT22;6119;52.372;8.990;2023-05-07T04:07:57;12.20;99.90
12111;DHT22;6119;52.372;8.990;2023-05-07T04:10:45;12.20;99.90
12111;DHT22;6119;52.372;8.990;2023-05-07T04:13:31;12.20;99.90
12111;DHT22;6119;52.372;8.990;2023-05-07T04:16:18;12.20;99.90
12111;DHT22;6119;52.372;8.990;2023-05-07T04:19:05;12.30;99.90
12111;DHT22;6119;52.372;8.990;2023-05-07T04:21:51;12.30;99.90
12111;DHT22;6119;52.372;8.990;2023-05-07T04:24:38;12.30;99.90
12111;DHT22;6119;52.372;8.990;2023-05-07T04:27:26;12.30;99.90
12111;DHT22;6119;52.372;8.990;2023-05-07T04:30:13;12.30;99.90
12111;DHT22;6119;52.372;8.990;2023-05-07T04:33:00;12.30;99.90
12111;DHT22;6119;52.372;8.990;2023-05-07T04:35:47;12.30;99.90
12111;DHT22;6119;52.372;8.990;2023-05-07T04:38:33;12.40;99.90
12111;DHT22;6119;52.372;8.990;2023-05-07T04:41:20;12.30;99.90
12111;DHT22;6119;52.372;8.990;2023-05-07T04:44:08;12.40;99.90
12111;DHT22;6119;52.372;8.990;2023-05-07T04:46:55;12.40;99.90
12111;DHT22;6119;52.372;8.990;2023-05-07T04:49:42;12.40;99.90
12111;DHT22;6119;52.372;8.990;2023-05-07T04:52:28;12.40;99.90
12111;DHT22;6119;52.372;8.990;2023-05-07T04:55:15;12.40;99.90
12111;DHT22;6119;52.372;8.990;2023-05-07T04:58:01;12.40;99.90
12111;DHT22;6119;52.372;8.990;2023-05-07T05:00:49;12.30;99.90
12111;DHT22;6119;52.372;8.990;2023-05-07T05:03:36;12.20;99.90
12111;DHT22;6119;52.372;8.990;2023-05-07T05:06:23;12.30;99.90
12111;DHT22;6119;52.372;8.990;2023-05-07T05:09:09;12.30;99.90
12111;DHT22;6119;52.372;8.990;2023-05-07T05:11:56;12.30;99.90
12111;DHT22;6119;52.372;8.990;2023-05-07T05:14:42;12.30;99.90
12111;DHT22;6119;52.372;8.990;2023-05-07T05:17:30;12.30;99.90
12111;DHT22;6119;52.372;8.990;2023-05-07T05:20:18;12.30;99.90
12111;DHT22;6119;52.372;8.990;2023-05-07T05:23:05;12.20;99.90
12111;DHT22;6119;52.372;8.990;2023-05-07T05:25:55;12.20;99.90
12111;DHT22;6119;52.372;8.990;2023-05-07T05:28:42;12.30;99.90
12111;DHT22;6119;52.372;8.990;2023-05-07T05:31:28;12.20;99.90
12111;DHT22;6119;52.372;8.990;2023-05-07T05:34:16;12.30;99.90
12111;DHT22;6119;52.372;8.990;2023-05-07T05:37:05;12.30;99.90
12111;DHT22;6119;52.372;8.990;2023-05-07T05:39:51;12.30;99.90
12111;DHT22;6119;52.372;8.990;2023-05-07T05:42:40;12.20;99.90
12111;DHT22;6119;52.372;8.990;2023-05-07T05:45:26;12.30;99.90
12111;DHT22;6119;52.372;8.990;2023-05-07T05:48:13;12.30;99.90
12111;DHT22;6119;52.372;8.990;2023-05-07T05:51:01;12.30;99.90
12111;DHT22;6119;52.372;8.990;2023-05-07T05:53:48;12.40;99.90
12111;DHT22;6119;52.372;8.990;2023-05-07T05:56:36;12.40;99.90
12111;DHT22;6119;52.372;8.990;2023-05-07T05:59:23;12.40;99.90
12111;DHT22;6119;52.372;8.990;2023-05-07T06:02:10;12.40;99.90
12111;DHT22;6119;52.372;8.990;2023-05-07T06:04:56;12.40;99.90
12111;DHT22;6119;52.372;8.990;2023-05-07T06:07:44;12.40;99.90
12111;DHT22;6119;52.372;8.990;2023-05-07T06:10:31;12.50;99.90
12111;DHT22;6119;52.372;8.990;2023-05-07T06:13:18;12.50;99.90
12111;DHT22;6119;52.372;8.990;2023-05-07T06:16:06;12.50;99.90
12111;DHT22;6119;52.372;8.990;2023-05-07T06:18:52;12.50;99.90
12111;DHT22;6119;52.372;8.990;2023-05-07T06:21:39;12.50;99.90
12111;DHT22;6119;52.372;8.990;2023-05-07T06:24:28;12.50;99.90
12111;DHT22;6119;52.372;8.990;2023-05-07T06:27:14;12.50;99.90
12111;DHT22;6119;52.372;8.990;2023-05-07T06:30:00;12.40;99.90
12111;DHT22;6119;52.372;8.990;2023-05-07T06:32:47;12.60;99.90
12111;DHT22;6119;52.372;8.990;2023-05-07T06:35:33;12.50;99.90
12111;DHT22;6119;52.372;8.990;2023-05-07T06:38:20;12.60;99.90
12111;DHT22;6119;52.372;8.990;2023-05-07T06:41:08;12.60;99.90
12111;DHT22;6119;52.372;8.990;2023-05-07T06:43:54;12.60;99.90
12111;DHT22;6119;52.372;8.990;2023-05-07T06:46:41;12.50;99.90
12111;DHT22;6119;52.372;8.990;2023-05-07T06:49:28;12.50;99.90
12111;DHT22;6119;52.372;8.990;2023-05-07T06:52:14;12.50;99.90
12111;DHT22;6119;52.372;8.990;2023-05-07T06:55:01;12.60;99.90
12111;DHT22;6119;52.372;8.990;2023-05-07T06:57:49;12.70;99.90
12111;DHT22;6119;52.372;8.990;2023-05-07T07:00:35;12.80;99.90
12111;DHT22;6119;52.372;8.990;2023-05-07T07:03:22;12.80;99.90
12111;DHT22;6119;52.372;8.990;2023-05-07T07:06:08;12.90;99.90
12111;DHT22;6119;52.372;8.990;2023-05-07T07:08:54;12.80;99.90
12111;DHT22;6119;52.372;8.990;2023-05-07T07:11:41;12.90;99.90
12111;DHT22;6119;52.372;8.990;2023-05-07T07:14:29;12.90;99.90
12111;DHT22;6119;52.372;8.990;2023-05-07T07:17:15;12.90;99.90
12111;DHT22;6119;52.372;8.990;2023-05-07T07:20:02;12.80;99.90
12111;DHT22;6119;52.372;8.990;2023-05-07T07:22:49;12.80;99.90
12111;DHT22;6119;52.372;8.990;2023-05-07T07:25:35;12.80;99.90
12111;DHT22;6119;52.372;8.990;2023-05-07T07:28:22;12.80;99.90
12111;DHT22;6119;52.372;8.990;2023-05-07T07:31:09;12.80;99.90
12111;DHT22;6119;52.372;8.990;2023-05-07T07:33:57;12.80;99.90
12111;DHT22;6119;52.372;8.990;2023-05-07T07:36:43;12.80;99.90
12111;DHT22;6119;52.372;8.990;2023-05-07T07:39:31;12.80;99.90
12111;DHT22;6119;52.372;8.990;2023-05-07T07:42:18;12.80;99.90
12111;DHT22;6119;52.372;8.990;2023-05-07T07:45:05;12.80;99.90
12111;DHT22;6119;52.372;8.990;2023-05-07T07:47:53;12.80;99.90
12111;DHT22;6119;52.372;8.990;2023-05-07T07:50:40;12.80;99.90
12111;DHT22;6119;52.372;8.990;2023-05-07T07:53:30;12.70;99.90
12111;DHT22;6119;52.372;8.990;2023-05-07T07:56:17;12.80;99.90
12111;DHT22;6119;52.372;8.990;2023-05-07T07:59:03;12.80;99.90
12111;DHT22;6119;52.372;8.990;2023-05-07T08:01:50;12.90;99.90
12111;DHT22;6119;52.372;8.990;2023-05-07T08:04:41;12.90;99.90
12111;DHT22;6119;52.372;8.990;2023-05-07T08:07:28;12.90;99.90
12111;DHT22;6119;52.372;8.990;2023-05-07T08:10:15;12.90;99.90
12111;DHT22;6119;52.372;8.990;2023-05-07T08:13:06;12.90;99.90
12111;DHT22;6119;52.372;8.990;2023-05-07T08:15:53;12.90;99.90
12111;DHT22;6119;52.372;8.990;2023-05-07T08:18:39;12.90;99.90
12111;DHT22;6119;52.372;8.990;2023-05-07T08:21:27;13.00;99.90
12111;DHT22;6119;52.372;8.990;2023-05-07T08:24:15;12.90;99.90
12111;DHT22;6119;52.372;8.990;2023-05-07T08:27:02;12.90;99.90
12111;DHT22;6119;52.372;8.990;2023-05-07T08:29:49;13.00;99.90
12111;DHT22;6119;52.372;8.990;2023-05-07T08:32:35;13.00;99.90
12111;DHT22;6119;52.372;8.990;2023-05-07T08:35:23;13.10;99.90
12111;DHT22;6119;52.372;8.990;2023-05-07T08:38:12;13.00;99.90
12111;DHT22;6119;52.372;8.990;2023-05-07T08:40:58;13.10;99.90
12111;DHT22;6119;52.372;8.990;2023-05-07T08:43:47;13.20;99.90
12111;DHT22;6119;52.372;8.990;2023-05-07T08:46:34;13.30;99.90
12111;DHT22;6119;52.372;8.990;2023-05-07T08:49:20;13.40;99.90
12111;DHT22;6119;52.372;8.990;2023-05-07T08:52:07;13.50;99.90
12111;DHT22;6119;52.372;8.990;2023-05-07T08:54:56;13.60;99.90
12111;DHT22;6119;52.372;8.990;2023-05-07T08:57:43;13.70;99.90
12111;DHT22;6119;52.372;8.990;2023-05-07T09:00:29;13.80;99.90
12111;DHT22;6119;52.372;8.990;2023-05-07T09:03:16;13.90;99.90
12111;DHT22;6119;52.372;8.990;2023-05-07T09:06:03;14.00;99.90
12111;DHT22;6119;52.372;8.990;2023-05-07T09:08:50;14.10;99.90
12111;DHT22;6119;52.372;8.990;2023-05-07T09:11:38;14.20;99.90
12111;DHT22;6119;52.372;8.990;2023-05-07T09:14:25;14.20;99.90
12111;DHT22;6119;52.372;8.990;2023-05-07T09:17:12;14.20;99.90
12111;DHT22;6119;52.372;8.990;2023-05-07T09:20:02;14.20;99.90
12111;DHT22;6119;52.372;8.990;2023-05-07T09:22:51;14.30;99.90
12111;DHT22;6119;52.372;8.990;2023-05-07T09:25:38;14.30;99.90
12111;DHT22;6119;52.372;8.990;2023-05-07T09:28:26;14.40;99.90
12111;DHT22;6119;52.372;8.990;2023-05-07T09:31:13;14.40;99.90
12111;DHT22;6119;52.372;8.990;2023-05-07T09:34:00;14.50;99.90
12111;DHT22;6119;52.372;8.990;2023-05-07T09:36:46;14.50;99.90
12111;DHT22;6119;52.372;8.990;2023-05-07T09:39:40;14.50;99.90
12111;DHT22;6119;52.372;8.990;2023-05-07T09:42:27;14.50;99.90
12111;DHT22;6119;52.372;8.990;2023-05-07T09:45:15;14.40;99.90
12111;DHT22;6119;52.372;8.990;2023-05-07T09:48:02;14.50;99.90
12111;DHT22;6119;52.372;8.990;2023-05-07T09:50:52;14.70;99.90
12111;DHT22;6119;52.372;8.990;2023-05-07T09:53:42;14.70;99.90
12111;DHT22;6119;52.372;8.990;2023-05-07T09:56:31;14.80;99.90
12111;DHT22;6119;52.372;8.990;2023-05-07T09:59:18;14.80;99.90
12111;DHT22;6119;52.372;8.990;2023-05-07T10:02:09;14.90;99.90
12111;DHT22;6119;52.372;8.990;2023-05-07T10:04:57;14.90;99.90
12111;DHT22;6119;52.372;8.990;2023-05-07T10:07:46;15.00;99.90
12111;DHT22;6119;52.372;8.990;2023-05-07T10:10:32;15.00;99.90
12111;DHT22;6119;52.372;8.990;2023-05-07T10:13:20;15.10;99.90
12111;DHT22;6119;52.372;8.990;2023-05-07T10:16:07;15.30;99.90
12111;DHT22;6119;52.372;8.990;2023-05-07T10:18:56;15.50;99.90
12111;DHT22;6119;52.372;8.990;2023-05-07T10:21:48;15.60;99.90
12111;DHT22;6119;52.372;8.990;2023-05-07T10:24:37;15.60;99.90
12111;DHT22;6119;52.372;8.990;2023-05-07T10:27:25;15.50;99.90
12111;DHT22;6119;52.372;8.990;2023-05-07T10:30:20;15.60;99.90
12111;DHT22;6119;52.372;8.990;2023-05-07T10:33:15;15.70;99.90
12111;DHT22;6119;52.372;8.990;2023-05-07T10:36:05;15.70;99.90
12111;DHT22;6119;52.372;8.990;2023-05-07T10:38:53;15.80;99.90
12111;DHT22;6119;52.372;8.990;2023-05-07T10:41:42;15.80;99.90
12111;DHT22;6119;52.372;8.990;2023-05-07T10:44:30;15.90;99.90
12111;DHT22;6119;52.372;8.990;2023-05-07T10:47:18;16.10;99.90
12111;DHT22;6119;52.372;8.990;2023-05-07T10:50:21;16.20;99.90
12111;DHT22;6119;52.372;8.990;2023-05-07T10:53:24;16.10;99.90
12111;DHT22;6119;52.372;8.990;2023-05-07T10:56:25;16.30;99.90
12111;DHT22;6119;52.372;8.990;2023-05-07T10:59:35;16.50;99.90
12111;DHT22;6119;52.372;8.990;2023-05-07T11:06:10;16.60;99.90
12111;DHT22;6119;52.372;8.990;2023-05-07T11:08:59;16.50;99.90
12111;DHT22;6119;52.372;8.990;2023-05-07T11:11:47;16.50;99.90
12111;DHT22;6119;52.372;8.990;2023-05-07T11:14:44;16.70;99.90
12111;DHT22;6119;52.372;8.990;2023-05-07T11:17:32;16.80;99.90
12111;DHT22;6119;52.372;8.990;2023-05-07T11:20:55;17.00;99.90
12111;DHT22;6119;52.372;8.990;2023-05-07T11:24:00;17.00;99.90
12111;DHT22;6119;52.372;8.990;2023-05-07T11:26:49;17.30;99.90
12111;DHT22;6119;52.372;8.990;2023-05-07T11:29:37;17.40;99.90
12111;DHT22;6119;52.372;8.990;2023-05-07T11:32:27;17.40;99.90
12111;DHT22;6119;52.372;8.990;2023-05-07T11:35:16;17.20;99.90
12111;DHT22;6119;52.372;8.990;2023-05-07T11:38:04;17.10;99.90
12111;DHT22;6119;52.372;8.990;2023-05-07T11:40:54;17.10;99.90
12111;DHT22;6119;52.372;8.990;2023-05-07T11:43:54;17.10;99.90
12111;DHT22;6119;52.372;8.990;2023-05-07T11:46:43;17.00;99.90
12111;DHT22;6119;52.372;8.990;2023-05-07T11:49:34;17.10;99.90
12111;DHT22;6119;52.372;8.990;2023-05-07T11:52:23;17.00;99.90
12111;DHT22;6119;52.372;8.990;2023-05-07T11:55:11;17.20;99.90
12111;DHT22;6119;52.372;8.990;2023-05-07T11:58:00;17.40;99.90
12111;DHT22;6119;52.372;8.990;2023-05-07T12:00:49;17.40;99.90
12111;DHT22;6119;52.372;8.990;2023-05-07T12:03:37;17.60;99.90
12111;DHT22;6119;52.372;8.990;2023-05-07T12:06:24;17.40;99.90
12111;DHT22;6119;52.372;8.990;2023-05-07T12:09:13;17.50;99.90
12111;DHT22;6119;52.372;8.990;2023-05-07T12:12:03;17.60;99.90
12111;DHT22;6119;52.372;8.990;2023-05-07T12:14:53;17.60;99.90
12111;DHT22;6119;52.372;8.990;2023-05-07T12:17:41;17.80;99.90
12111;DHT22;6119;52.372;8.990;2023-05-07T12:20:28;17.80;99.90
12111;DHT22;6119;52.372;8.990;2023-05-07T12:23:17;17.90;99.90
12111;DHT22;6119;52.372;8.990;2023-05-07T12:26:05;18.00;99.90
12111;DHT22;6119;52.372;8.990;2023-05-07T12:28:52;18.10;99.90
12111;DHT22;6119;52.372;8.990;2023-05-07T12:31:42;18.30;99.90
12111;DHT22;6119;52.372;8.990;2023-05-07T12:34:31;18.50;99.90
12111;DHT22;6119;52.372;8.990;2023-05-07T12:37:23;18.80;99.90
12111;DHT22;6119;52.372;8.990;2023-05-07T12:40:15;18.90;99.90
12111;DHT22;6119;52.372;8.990;2023-05-07T12:43:03;19.00;99.90
12111;DHT22;6119;52.372;8.990;2023-05-07T12:45:53;19.40;99.90
12111;DHT22;6119;52.372;8.990;2023-05-07T12:48:45;19.40;99.90
12111;DHT22;6119;52.372;8.990;2023-05-07T12:51:34;19.30;99.90
12111;DHT22;6119;52.372;8.990;2023-05-07T12:54:29;19.30;99.90
12111;DHT22;6119;52.372;8.990;2023-05-07T12:57:19;19.40;99.90
12111;DHT22;6119;52.372;8.990;2023-05-07T13:00:08;19.50;99.90
12111;DHT22;6119;52.372;8.990;2023-05-07T13:02:56;19.20;99.90
12111;DHT22;6119;52.372;8.990;2023-05-07T13:05:47;19.20;99.90
12111;DHT22;6119;52.372;8.990;2023-05-07T13:08:37;19.30;99.90
12111;DHT22;6119;52.372;8.990;2023-05-07T13:11:26;19.50;99.90
12111;DHT22;6119;52.372;8.990;2023-05-07T13:14:14;19.40;99.90
12111;DHT22;6119;52.372;8.990;2023-05-07T13:17:02;19.30;99.90
12111;DHT22;6119;52.372;8.990;2023-05-07T13:19:49;19.20;99.90
12111;DHT22;6119;52.372;8.990;2023-05-07T13:22:38;19.20;99.90
12111;DHT22;6119;52.372;8.990;2023-05-07T13:25:26;19.40;99.90
12111;DHT22;6119;52.372;8.990;2023-05-07T13:28:14;19.50;99.90
12111;DHT22;6119;52.372;8.990;2023-05-07T13:31:02;19.40;99.90
12111;DHT22;6119;52.372;8.990;2023-05-07T13:33:50;19.20;99.90
12111;DHT22;6119;52.372;8.990;2023-05-07T13:36:38;19.00;99.90
12111;DHT22;6119;52.372;8.990;2023-05-07T13:39:29;19.00;99.90
12111;DHT22;6119;52.372;8.990;2023-05-07T13:42:17;19.10;99.90
12111;DHT22;6119;52.372;8.990;2023-05-07T13:45:05;19.30;99.90
12111;DHT22;6119;52.372;8.990;2023-05-07T13:47:53;19.10;99.90
12111;DHT22;6119;52.372;8.990;2023-05-07T13:50:40;19.40;99.90
12111;DHT22;6119;52.372;8.990;2023-05-07T13:53:28;19.80;99.90
12111;DHT22;6119;52.372;8.990;2023-05-07T13:56:17;19.90;99.90
12111;DHT22;6119;52.372;8.990;2023-05-07T13:59:08;19.90;99.90
12111;DHT22;6119;52.372;8.990;2023-05-07T14:01:56;19.90;99.90
12111;DHT22;6119;52.372;8.990;2023-05-07T14:04:43;19.90;99.90
12111;DHT22;6119;52.372;8.990;2023-05-07T14:07:31;19.80;99.90
12111;DHT22;6119;52.372;8.990;2023-05-07T14:10:18;19.90;99.90
12111;DHT22;6119;52.372;8.990;2023-05-07T14:13:08;19.60;99.90
12111;DHT22;6119;52.372;8.990;2023-05-07T14:15:56;19.50;99.90
12111;DHT22;6119;52.372;8.990;2023-05-07T14:18:43;19.40;99.90
12111;DHT22;6119;52.372;8.990;2023-05-07T14:21:30;19.30;99.90
12111;DHT22;6119;52.372;8.990;2023-05-07T14:24:18;19.20;99.90
12111;DHT22;6119;52.372;8.990;2023-05-07T14:27:22;18.90;99.90
12111;DHT22;6119;52.372;8.990;2023-05-07T14:30:11;18.80;99.90
12111;DHT22;6119;52.372;8.990;2023-05-07T14:32:59;18.90;99.90
12111;DHT22;6119;52.372;8.990;2023-05-07T14:35:47;19.10;99.90
12111;DHT22;6119;52.372;8.990;2023-05-07T14:38:36;18.90;99.90
12111;DHT22;6119;52.372;8.990;2023-05-07T14:41:24;19.20;99.90
12111;DHT22;6119;52.372;8.990;2023-05-07T14:44:12;19.10;99.90
12111;DHT22;6119;52.372;8.990;2023-05-07T14:47:01;18.80;99.90
12111;DHT22;6119;52.372;8.990;2023-05-07T14:49:48;18.70;99.90
12111;DHT22;6119;52.372;8.990;2023-05-07T14:52:36;18.60;99.90
12111;DHT22;6119;52.372;8.990;2023-05-07T14:55:24;18.40;99.90
12111;DHT22;6119;52.372;8.990;2023-05-07T14:58:11;18.50;99.90
12111;DHT22;6119;52.372;8.990;2023-05-07T15:00:59;18.30;99.90
12111;DHT22;6119;52.372;8.990;2023-05-07T15:03:46;18.40;99.90
12111;DHT22;6119;52.372;8.990;2023-05-07T15:06:33;18.30;99.90
12111;DHT22;6119;52.372;8.990;2023-05-07T15:09:20;18.30;99.90
12111;DHT22;6119;52.372;8.990;2023-05-07T15:12:06;18.40;99.90
12111;DHT22;6119;52.372;8.990;2023-05-07T15:14:53;18.40;99.90
12111;DHT22;6119;52.372;8.990;2023-05-07T15:17:39;18.30;99.90
12111;DHT22;6119;52.372;8.990;2023-05-07T15:20:27;18.30;99.90
12111;DHT22;6119;52.372;8.990;2023-05-07T15:23:14;18.10;99.90
12111;DHT22;6119;52.372;8.990;2023-05-07T15:26:01;18.10;99.90
12111;DHT22;6119;52.372;8.990;2023-05-07T15:28:49;18.10;99.90
12111;DHT22;6119;52.372;8.990;2023-05-07T15:31:36;18.10;99.90
12111;DHT22;6119;52.372;8.990;2023-05-07T15:34:24;18.10;99.90
12111;DHT22;6119;52.372;8.990;2023-05-07T15:37:12;18.10;99.90
12111;DHT22;6119;52.372;8.990;2023-05-07T15:39:59;18.00;99.90
12111;DHT22;6119;52.372;8.990;2023-05-07T15:42:47;18.00;99.90
12111;DHT22;6119;52.372;8.990;2023-05-07T15:45:38;17.90;99.90
12111;DHT22;6119;52.372;8.990;2023-05-07T15:48:26;17.90;99.90
12111;DHT22;6119;52.372;8.990;2023-05-07T15:51:13;17.90;99.90
12111;DHT22;6119;52.372;8.990;2023-05-07T15:54:01;18.10;99.90
12111;DHT22;6119;52.372;8.990;2023-05-07T15:56:47;18.20;99.90
12111;DHT22;6119;52.372;8.990;2023-05-07T15:59:34;18.20;99.90
12111;DHT22;6119;52.372;8.990;2023-05-07T16:02:21;18.30;99.90
12111;DHT22;6119;52.372;8.990;2023-05-07T16:05:08;18.20;99.90
12111;DHT22;6119;52.372;8.990;2023-05-07T16:07:56;18.20;99.90
12111;DHT22;6119;52.372;8.990;2023-05-07T16:10:45;18.20;99.90
12111;DHT22;6119;52.372;8.990;2023-05-07T16:13:33;18.10;99.90
12111;DHT22;6119;52.372;8.990;2023-05-07T16:16:20;18.00;99.90
12111;DHT22;6119;52.372;8.990;2023-05-07T16:19:07;17.90;99.90
12111;DHT22;6119;52.372;8.990;2023-05-07T16:21:54;18.10;99.90
12111;DHT22;6119;52.372;8.990;2023-05-07T16:24:40;18.30;99.90
12111;DHT22;6119;52.372;8.990;2023-05-07T16:27:28;18.40;99.90
12111;DHT22;6119;52.372;8.990;2023-05-07T16:30:15;18.20;99.90
12111;DHT22;6119;52.372;8.990;2023-05-07T16:33:02;18.10;99.90
12111;DHT22;6119;52.372;8.990;2023-05-07T16:35:52;18.00;99.90
12111;DHT22;6119;52.372;8.990;2023-05-07T16:38:39;17.90;99.90
12111;DHT22;6119;52.372;8.990;2023-05-07T16:41:26;17.80;99.90
12111;DHT22;6119;52.372;8.990;2023-05-07T16:44:14;17.90;99.90
12111;DHT22;6119;52.372;8.990;2023-05-07T16:47:00;17.90;99.90
12111;DHT22;6119;52.372;8.990;2023-05-07T16:49:47;17.80;99.90
12111;DHT22;6119;52.372;8.990;2023-05-07T16:52:35;17.80;99.90
12111;DHT22;6119;52.372;8.990;2023-05-07T16:55:22;17.80;99.90
12111;DHT22;6119;52.372;8.990;2023-05-07T16:58:09;17.80;99.90
12111;DHT22;6119;52.372;8.990;2023-05-07T17:00:57;17.70;99.90
12111;DHT22;6119;52.372;8.990;2023-05-07T17:03:44;17.70;99.90
12111;DHT22;6119;52.372;8.990;2023-05-07T17:06:31;17.50;99.90
12111;DHT22;6119;52.372;8.990;2023-05-07T17:09:19;17.30;99.90
12111;DHT22;6119;52.372;8.990;2023-05-07T17:12:06;17.10;99.90
12111;DHT22;6119;52.372;8.990;2023-05-07T17:14:53;17.10;99.90
12111;DHT22;6119;52.372;8.990;2023-05-07T17:17:41;17.00;99.90
12111;DHT22;6119;52.372;8.990;2023-05-07T17:20:27;16.90;99.90
12111;DHT22;6119;52.372;8.990;2023-05-07T17:23:14;16.80;99.90
12111;DHT22;6119;52.372;8.990;2023-05-07T17:26:00;16.80;99.90
12111;DHT22;6119;52.372;8.990;2023-05-07T17:28:47;16.70;99.90
12111;DHT22;6119;52.372;8.990;2023-05-07T17:31:33;16.50;99.90
12111;DHT22;6119;52.372;8.990;2023-05-07T17:34:22;16.60;99.90
12111;DHT22;6119;52.372;8.990;2023-05-07T17:37:08;16.60;99.90
12111;DHT22;6119;52.372;8.990;2023-05-07T17:39:55;16.50;99.90
12111;DHT22;6119;52.372;8.990;2023-05-07T17:42:41;16.40;99.90
12111;DHT22;6119;52.372;8.990;2023-05-07T17:45:28;16.40;99.90
12111;DHT22;6119;52.372;8.990;2023-05-07T17:48:15;16.40;99.90
12111;DHT22;6119;52.372;8.990;2023-05-07T17:51:04;16.40;99.90
12111;DHT22;6119;52.372;8.990;2023-05-07T17:53:50;16.30;99.90
12111;DHT22;6119;52.372;8.990;2023-05-07T17:56:37;16.30;99.90
12111;DHT22;6119;52.372;8.990;2023-05-07T17:59:23;16.20;99.90
12111;DHT22;6119;52.372;8.990;2023-05-07T18:02:10;16.20;99.90